createdAt,value
2023-04-10T00:01:36.824Z,102178.94
2023-04-10T00:04:05.078Z,102185.59
2023-04-10T00:06:32.525Z,102183.28
2023-04-10T00:08:59.589Z,102175.84
2023-04-10T00:11:28.604Z,102176.66
2023-04-10T00:13:57.050Z,102179.66
2023-04-10T00:16:25.925Z,102176.44
2023-04-10T00:18:53.609Z,102163.06
2023-04-10T00:21:23.141Z,102165.66
2023-04-10T00:23:50.392Z,102155.47
2023-04-10T00:26:17.154Z,102155.88
2023-04-10T00:28:45.348Z,102153.53
2023-04-10T00:31:11.978Z,102146.50
2023-04-10T00:33:38.913Z,102152.66
2023-04-10T00:36:05.861Z,102155.84
2023-04-10T00:38:32.528Z,102153.66
2023-04-10T00:41:01.000Z,102152.72
2023-04-10T00:43:29.388Z,102146.31
2023-04-10T00:45:56.374Z,102148.31
2023-04-10T00:48:25.560Z,102142.34
2023-04-10T00:50:53.464Z,102146.31
2023-04-10T00:53:22.138Z,102141.66
2023-04-10T00:55:51.699Z,102141.09
2023-04-10T00:58:18.984Z,102146.88
2023-04-10T01:00:46.984Z,102146.63
2023-04-10T01:03:16.711Z,102146.41
2023-04-10T01:06:05.381Z,102143.28
2023-04-10T01:08:53.594Z,102131.31
2023-04-10T01:11:22.370Z,102138.25
2023-04-10T01:13:56.586Z,102130.72
2023-04-10T01:16:35.119Z,102139.31
2023-04-10T01:19:15.361Z,102143.63
2023-04-10T01:21:43.144Z,102135.53
2023-04-10T01:24:25.583Z,102132.16
2023-04-10T01:27:12.946Z,102135.44
2023-04-10T01:29:44.533Z,102138.38
2023-04-10T01:32:14.556Z,102131.91
2023-04-10T01:34:45.177Z,102126.72
2023-04-10T01:37:22.388Z,102126.00
2023-04-10T01:39:57.276Z,102123.50
2023-04-10T01:42:24.576Z,102127.56
2023-04-10T01:44:54.129Z,102124.31
2023-04-10T01:47:21.118Z,102120.69
2023-04-10T01:49:50.505Z,102121.16
2023-04-10T01:52:19.075Z,102117.22
2023-04-10T01:54:48.773Z,102111.16
2023-04-10T01:57:16.236Z,102107.69
2023-04-10T01:59:44.443Z,102103.47
2023-04-10T02:02:12.290Z,102105.59
2023-04-10T02:04:40.640Z,102097.50
2023-04-10T02:07:13.138Z,102086.72
2023-04-10T02:09:46.590Z,102078.91
2023-04-10T02:12:24.122Z,102089.50
2023-04-10T02:14:52.902Z,102086.00
2023-04-10T02:17:23.623Z,102083.63
2023-04-10T02:19:53.342Z,102066.56
2023-04-10T02:22:20.805Z,102064.72
2023-04-10T02:24:47.579Z,102063.38
2023-04-10T02:27:15.105Z,102062.63
2023-04-10T02:29:43.418Z,102050.56
2023-04-10T02:32:11.958Z,102053.91
2023-04-10T02:34:38.484Z,102053.66
2023-04-10T02:37:05.207Z,102052.25
2023-04-10T02:39:32.285Z,102054.22
2023-04-10T02:41:58.966Z,102057.03
2023-04-10T02:44:26.028Z,102064.06
2023-04-10T02:46:52.856Z,102053.38
2023-04-10T02:49:19.614Z,102055.34
2023-04-10T02:51:47.982Z,102048.88
2023-04-10T02:54:14.721Z,102050.59
2023-04-10T02:56:41.700Z,102053.25
2023-04-10T02:59:09.103Z,102046.31
2023-04-10T03:01:36.240Z,102048.06
2023-04-10T03:04:04.117Z,102052.75
2023-04-10T03:06:33.015Z,102040.41
2023-04-10T03:08:59.537Z,102034.13
2023-04-10T03:11:26.304Z,102034.00
2023-04-10T03:13:53.913Z,102033.59
2023-04-10T03:16:21.332Z,102024.75
2023-04-10T03:18:48.298Z,102021.25
2023-04-10T03:21:15.180Z,102023.06
2023-04-10T03:23:43.532Z,102029.34
2023-04-10T03:26:12.694Z,102013.44
2023-04-10T03:28:40.051Z,102015.16
2023-04-10T03:31:11.764Z,102008.50
2023-04-10T03:33:38.697Z,102004.56
2023-04-10T03:36:05.648Z,102004.13
2023-04-10T03:38:32.429Z,102005.66
2023-04-10T03:40:59.615Z,102003.41
2023-04-10T03:43:28.060Z,102008.34
2023-04-10T03:45:55.141Z,102004.81
2023-04-10T03:48:22.104Z,102000.03
2023-04-10T03:50:48.746Z,102002.75
2023-04-10T03:53:17.208Z,101988.56
2023-04-10T03:55:44.064Z,102000.34
2023-04-10T03:58:11.033Z,101993.91
2023-04-10T04:00:37.677Z,102006.25
2023-04-10T04:03:05.468Z,102007.38
2023-04-10T04:05:32.487Z,101995.53
2023-04-10T04:07:59.198Z,102001.75
2023-04-10T04:10:26.034Z,101998.31
2023-04-10T04:12:52.681Z,101992.16
2023-04-10T04:15:20.545Z,102001.41
2023-04-10T04:17:47.654Z,102004.16
2023-04-10T04:20:16.011Z,101996.16
2023-04-10T04:22:46.949Z,101997.13
2023-04-10T04:25:14.064Z,101996.13
2023-04-10T04:27:40.544Z,101994.41
2023-04-10T04:30:08.195Z,101992.97
2023-04-10T04:32:35.050Z,101997.22
2023-04-10T04:35:03.266Z,101991.03
2023-04-10T04:37:30.060Z,101994.88
2023-04-10T04:39:57.809Z,101992.59
2023-04-10T04:42:26.243Z,101994.16
2023-04-10T04:44:54.252Z,101994.16
2023-04-10T04:47:21.346Z,101993.19
2023-04-10T04:49:48.069Z,101985.75
2023-04-10T04:52:15.004Z,101992.63
2023-04-10T04:54:41.616Z,101988.84
2023-04-10T04:57:08.209Z,101982.09
2023-04-10T04:59:38.221Z,101991.09
2023-04-10T05:02:07.979Z,101990.97
2023-04-10T05:04:35.518Z,101986.59
2023-04-10T05:07:02.688Z,101988.53
2023-04-10T05:09:30.204Z,101989.13
2023-04-10T05:11:57.089Z,101992.19
2023-04-10T05:14:24.300Z,101993.06
2023-04-10T05:16:51.145Z,101997.53
2023-04-10T05:19:18.206Z,101995.56
2023-04-10T05:21:45.110Z,101996.97
2023-04-10T05:24:13.030Z,101997.38
2023-04-10T05:26:40.891Z,101988.38
2023-04-10T05:29:07.582Z,101991.16
2023-04-10T05:31:34.289Z,101995.47
2023-04-10T05:34:01.153Z,101984.53
2023-04-10T05:36:28.054Z,101985.13
2023-04-10T05:38:54.796Z,101990.19
2023-04-10T05:41:22.032Z,101985.63
2023-04-10T05:43:48.613Z,101988.25
2023-04-10T05:46:15.432Z,101979.97
2023-04-10T05:48:42.296Z,101981.72
2023-04-10T05:51:09.144Z,101975.25
2023-04-10T05:53:37.342Z,101972.03
2023-04-10T05:56:04.165Z,101968.59
2023-04-10T05:58:31.930Z,101975.25
2023-04-10T06:00:58.681Z,101969.88
2023-04-10T06:03:27.795Z,101972.81
2023-04-10T06:05:56.281Z,101973.25
2023-04-10T06:08:23.127Z,101972.47
2023-04-10T06:10:49.579Z,101974.88
2023-04-10T06:13:16.739Z,101961.03
2023-04-10T06:15:44.040Z,101971.91
2023-04-10T06:18:12.092Z,101957.84
2023-04-10T06:20:38.677Z,101950.97
2023-04-10T06:23:06.707Z,101945.41
2023-04-10T06:25:35.754Z,101941.75
2023-04-10T06:28:03.849Z,101940.63
2023-04-10T06:30:34.790Z,101936.59
2023-04-10T06:33:01.666Z,101926.25
2023-04-10T06:35:29.200Z,101919.94
2023-04-10T06:37:57.636Z,101918.63
2023-04-10T06:40:24.055Z,101912.50
2023-04-10T06:42:50.854Z,101921.13
2023-04-10T06:45:18.066Z,101920.50
2023-04-10T06:47:44.608Z,101912.59
2023-04-10T06:50:11.737Z,101919.19
2023-04-10T06:52:39.076Z,101910.09
2023-04-10T06:55:07.069Z,101912.28
2023-04-10T06:57:33.801Z,101909.06
2023-04-10T07:00:01.012Z,101902.19
2023-04-10T07:02:28.417Z,101896.66
2023-04-10T07:04:56.921Z,101903.91
2023-04-10T07:07:23.945Z,101905.56
2023-04-10T07:09:58.093Z,101909.59
2023-04-10T07:12:25.279Z,101912.44
2023-04-10T07:14:52.028Z,101905.22
2023-04-10T07:17:18.622Z,101910.56
2023-04-10T07:19:45.357Z,101906.00
2023-04-10T07:22:13.217Z,101908.25
2023-04-10T07:24:42.478Z,101904.06
2023-04-10T07:27:09.041Z,101897.72
2023-04-10T07:29:35.626Z,101892.38
2023-04-10T07:32:02.223Z,101901.38
2023-04-10T07:34:31.292Z,101899.88
2023-04-10T07:36:58.789Z,101903.22
2023-04-10T07:39:26.832Z,101891.00
2023-04-10T07:41:54.775Z,101889.72
2023-04-10T07:44:22.061Z,101887.06
2023-04-10T07:46:49.298Z,101889.81
2023-04-10T07:49:17.514Z,101883.84
2023-04-10T07:51:44.496Z,101888.44
2023-04-10T07:54:11.244Z,101884.09
2023-04-10T07:56:38.710Z,101885.50
2023-04-10T07:59:06.157Z,101888.28
2023-04-10T08:01:33.437Z,101879.19
2023-04-10T08:04:02.868Z,101876.41
2023-04-10T08:06:33.974Z,101874.09
2023-04-10T08:09:02.047Z,101867.19
2023-04-10T08:11:30.375Z,101872.56
2023-04-10T08:13:58.653Z,101866.78
2023-04-10T08:16:29.652Z,101859.41
2023-04-10T08:18:57.724Z,101863.78
2023-04-10T08:21:27.190Z,101856.50
2023-04-10T08:23:55.399Z,101850.63
2023-04-10T08:26:22.550Z,101844.72
2023-04-10T08:28:50.714Z,101848.19
2023-04-10T08:31:21.958Z,101841.13
2023-04-10T08:33:48.784Z,101844.47
2023-04-10T08:36:19.888Z,101836.03
2023-04-10T08:38:47.368Z,101835.63
2023-04-10T08:41:15.716Z,101831.75
2023-04-10T08:43:44.552Z,101833.41
2023-04-10T08:46:11.998Z,101835.69
2023-04-10T08:49:00.050Z,101830.75
2023-04-10T08:51:28.610Z,101827.06
2023-04-10T08:53:58.722Z,101822.44
2023-04-10T08:56:26.154Z,101818.88
2023-04-10T08:58:53.247Z,101815.50
2023-04-10T09:01:21.690Z,101812.19
2023-04-10T09:03:49.220Z,101803.94
2023-04-10T09:06:20.375Z,101808.03
2023-04-10T09:08:48.631Z,101806.25
2023-04-10T09:11:15.540Z,101796.47
2023-04-10T09:13:45.043Z,101783.44
2023-04-10T09:16:12.368Z,101785.00
2023-04-10T09:18:43.248Z,101791.63
2023-04-10T09:21:11.242Z,101783.22
2023-04-10T09:23:39.542Z,101774.31
2023-04-10T09:26:26.363Z,101776.19
2023-04-10T09:29:00.924Z,101770.34
2023-04-10T09:31:31.981Z,101763.00
2023-04-10T09:34:17.113Z,101756.41
2023-04-10T09:36:55.078Z,101748.28
2023-04-10T09:39:32.961Z,101739.66
2023-04-10T09:42:01.154Z,101741.47
2023-04-10T09:44:37.303Z,101737.59
2023-04-10T09:47:22.575Z,101727.88
2023-04-10T09:49:49.962Z,101723.22
2023-04-10T09:52:23.402Z,101705.56
2023-04-10T09:54:51.612Z,101707.38
2023-04-10T09:57:23.503Z,101701.06
2023-04-10T09:59:53.973Z,101691.63
2023-04-10T10:02:22.895Z,101690.88
2023-04-10T10:04:51.546Z,101682.03
2023-04-10T10:07:24.747Z,101675.22
2023-04-10T10:09:52.764Z,101669.91
2023-04-10T10:12:37.890Z,101670.91
2023-04-10T10:15:09.590Z,101656.16
2023-04-10T10:17:40.891Z,101650.50
2023-04-10T10:20:13.589Z,101642.03
2023-04-10T10:22:42.469Z,101638.44
2023-04-10T10:25:10.295Z,101640.69
2023-04-10T10:27:38.974Z,101643.66
2023-04-10T10:30:20.203Z,101635.53
2023-04-10T10:32:54.868Z,101644.41
2023-04-10T10:35:23.595Z,101620.56
2023-04-10T10:37:52.920Z,101620.38
2023-04-10T10:40:44.726Z,101609.75
2023-04-10T10:43:27.243Z,101606.66
2023-04-10T10:46:01.198Z,101603.25
2023-04-10T10:48:28.491Z,101594.47
2023-04-10T10:50:58.290Z,101592.47
2023-04-10T10:53:40.815Z,101590.31
2023-04-10T10:56:37.207Z,101576.91
2023-04-10T10:59:05.971Z,101572.34
2023-04-10T11:01:34.770Z,101566.47
2023-04-10T11:04:26.843Z,101574.50
2023-04-10T11:06:53.506Z,101559.75
2023-04-10T11:09:41.378Z,101552.66
2023-04-10T11:12:07.916Z,101551.56
2023-04-10T11:14:34.669Z,101552.06
2023-04-10T11:17:04.604Z,101542.97
2023-04-10T11:19:52.760Z,101532.22
2023-04-10T11:22:20.832Z,101532.81
2023-04-10T11:24:54.512Z,101527.78
2023-04-10T11:27:45.274Z,101522.16
2023-04-10T11:30:33.052Z,101503.13
2023-04-10T11:33:04.499Z,101504.34
2023-04-10T11:35:32.684Z,101502.50
2023-04-10T11:38:37.279Z,101493.47
2023-04-10T11:41:07.319Z,101482.06
2023-04-10T11:43:36.650Z,101493.88
2023-04-10T11:46:05.092Z,101469.75
2023-04-10T11:48:34.397Z,101478.88
2023-04-10T11:51:07.797Z,101467.38
2023-04-10T11:53:37.951Z,101474.72
2023-04-10T11:56:08.981Z,101468.13
2023-04-10T11:58:39.915Z,101466.00
2023-04-10T12:01:08.128Z,101459.97
2023-04-10T12:03:55.210Z,101457.03
2023-04-10T12:06:27.921Z,101446.47
2023-04-10T12:08:55.989Z,101449.59
2023-04-10T12:11:24.968Z,101458.75
2023-04-10T12:13:58.047Z,101449.41
2023-04-10T12:16:29.816Z,101442.56
2023-04-10T12:18:58.195Z,101423.81
2023-04-10T12:21:27.184Z,101427.44
2023-04-10T12:23:54.589Z,101420.84
2023-04-10T12:26:22.163Z,101418.50
2023-04-10T12:28:57.822Z,101410.34
2023-04-10T12:31:29.406Z,101400.22
2023-04-10T12:34:01.442Z,101401.47
2023-04-10T12:36:30.945Z,101399.16
2023-04-10T12:39:02.567Z,101397.63
2023-04-10T12:41:32.735Z,101399.06
2023-04-10T12:44:10.128Z,101397.72
2023-04-10T12:46:37.563Z,101394.47
2023-04-10T12:49:16.264Z,101394.44
2023-04-10T12:51:51.639Z,101395.34
2023-04-10T12:54:37.151Z,101375.88
2023-04-10T12:57:05.023Z,101377.47
2023-04-10T12:59:33.273Z,101375.38
2023-04-10T13:02:02.709Z,101361.63
2023-04-10T13:04:32.548Z,101364.50
2023-04-10T13:07:01.288Z,101350.59
2023-04-10T13:09:28.740Z,101342.72
2023-04-10T13:11:58.961Z,101341.97
2023-04-10T13:14:42.694Z,101342.22
2023-04-10T13:17:10.686Z,101327.59
2023-04-10T13:19:39.375Z,101325.47
2023-04-10T13:22:06.449Z,101325.09
2023-04-10T13:24:34.158Z,101309.28
2023-04-10T13:27:02.431Z,101312.00
2023-04-10T13:29:30.174Z,101306.59
2023-04-10T13:31:57.099Z,101295.19
2023-04-10T13:34:25.192Z,101286.66
2023-04-10T13:36:53.887Z,101283.88
2023-04-10T13:39:27.268Z,101282.66
2023-04-10T13:42:00.760Z,101274.56
2023-04-10T13:44:28.865Z,101265.81
2023-04-10T13:46:59.987Z,101266.78
2023-04-10T13:49:30.592Z,101257.75
2023-04-10T13:52:00.125Z,101248.75
2023-04-10T13:54:28.086Z,101253.41
2023-04-10T13:56:59.702Z,101248.47
2023-04-10T13:59:28.212Z,101233.63
2023-04-10T14:01:56.618Z,101230.78
2023-04-10T14:04:32.922Z,101227.38
2023-04-10T14:07:02.410Z,101213.66
2023-04-10T14:09:29.965Z,101211.34
2023-04-10T14:12:01.639Z,101204.13
2023-04-10T14:14:31.399Z,101192.69
2023-04-10T14:17:01.620Z,101186.63
2023-04-10T14:19:30.560Z,101174.72
2023-04-10T14:21:59.146Z,101177.06
2023-04-10T14:24:28.146Z,101167.22
2023-04-10T14:27:01.493Z,101162.88
2023-04-10T14:29:37.292Z,101155.84
2023-04-10T14:32:05.648Z,101153.25
2023-04-10T14:34:35.313Z,101142.53
2023-04-10T14:37:04.748Z,101142.63
2023-04-10T14:39:31.969Z,101139.19
2023-04-10T14:42:05.321Z,101142.41
2023-04-10T14:44:33.334Z,101126.91
2023-04-10T14:47:00.225Z,101128.59
2023-04-10T14:49:27.523Z,101120.31
2023-04-10T14:51:54.993Z,101112.38
2023-04-10T14:54:28.518Z,101103.81
2023-04-10T14:56:57.319Z,101098.72
2023-04-10T14:59:24.425Z,101093.25
2023-04-10T15:01:54.381Z,101086.09
2023-04-10T15:04:21.815Z,101091.84
2023-04-10T15:06:51.970Z,101077.88
2023-04-10T15:09:21.880Z,101072.91
2023-04-10T15:11:49.757Z,101067.88
2023-04-10T15:14:17.608Z,101056.00
2023-04-10T15:16:45.396Z,101050.75
2023-04-10T15:19:12.672Z,101047.81
2023-04-10T15:21:41.293Z,101028.25
2023-04-10T15:24:09.120Z,101025.28
2023-04-10T15:26:36.426Z,101023.53
2023-04-10T15:29:05.594Z,101023.66
2023-04-10T15:31:32.623Z,101014.66
2023-04-10T15:34:00.406Z,101010.63
2023-04-10T15:36:36.386Z,101015.94
2023-04-10T15:39:03.824Z,100993.78
2023-04-10T15:41:32.694Z,100998.94
2023-04-10T15:44:00.064Z,100990.66
2023-04-10T15:46:34.503Z,100981.44
2023-04-10T15:49:04.253Z,100978.50
2023-04-10T15:51:34.267Z,100968.25
2023-04-10T15:54:05.405Z,100973.25
2023-04-10T15:56:39.046Z,100962.53
2023-04-10T15:59:10.851Z,100940.81
2023-04-10T16:01:38.271Z,100944.78
2023-04-10T16:04:05.658Z,100937.97
2023-04-10T16:06:41.233Z,100926.50
2023-04-10T16:09:18.648Z,100922.56
2023-04-10T16:11:51.960Z,100928.16
2023-04-10T16:14:22.844Z,100922.63
2023-04-10T16:16:49.962Z,100902.25
2023-04-10T16:19:16.714Z,100909.66
2023-04-10T16:21:43.817Z,100911.16
2023-04-10T16:24:11.172Z,100913.69
2023-04-10T16:26:38.364Z,100902.88
2023-04-10T16:29:05.773Z,100907.97
2023-04-10T16:31:32.800Z,100883.81
2023-04-10T16:33:59.758Z,100893.75
2023-04-10T16:36:27.096Z,100896.25
2023-04-10T16:38:53.899Z,100880.91
2023-04-10T16:41:21.172Z,100879.53
2023-04-10T16:43:49.788Z,100866.56
2023-04-10T16:46:16.836Z,100865.38
2023-04-10T16:48:43.600Z,100857.13
2023-04-10T16:51:17.918Z,100844.56
2023-04-10T16:53:45.001Z,100842.66
2023-04-10T16:56:12.157Z,100841.00
2023-04-10T16:58:43.151Z,100849.25
2023-04-10T17:01:16.903Z,100844.19
2023-04-10T17:03:44.937Z,100832.91
2023-04-10T17:06:12.216Z,100839.50
2023-04-10T17:08:38.920Z,100830.19
2023-04-10T17:11:05.888Z,100817.53
2023-04-10T17:13:33.072Z,100819.63
2023-04-10T17:16:04.974Z,100814.00
2023-04-10T17:18:38.880Z,100811.84
2023-04-10T17:21:11.907Z,100791.75
2023-04-10T17:23:54.261Z,100796.53
2023-04-10T17:26:23.920Z,100791.50
2023-04-10T17:28:51.624Z,100792.09
2023-04-10T17:31:19.987Z,100783.47
2023-04-10T17:33:50.992Z,100773.81
2023-04-10T17:36:18.284Z,100777.69
2023-04-10T17:38:54.032Z,100782.69
2023-04-10T17:41:21.586Z,100772.44
2023-04-10T17:43:49.020Z,100766.94
2023-04-10T17:46:18.130Z,100770.63
2023-04-10T17:48:46.392Z,100763.63
2023-04-10T17:51:16.240Z,100774.88
2023-04-10T17:53:47.212Z,100767.88
2023-04-10T17:56:21.376Z,100767.84
2023-04-10T17:58:49.284Z,100772.31
2023-04-10T18:01:35.382Z,100782.53
2023-04-10T18:04:03.981Z,100772.22
2023-04-10T18:06:35.092Z,100766.03
2023-04-10T18:09:03.011Z,100759.75
2023-04-10T18:11:31.409Z,100755.13
2023-04-10T18:13:59.788Z,100744.25
2023-04-10T18:16:30.075Z,100739.72
2023-04-10T18:19:03.955Z,100739.31
2023-04-10T18:21:31.753Z,100733.41
2023-04-10T18:24:00.443Z,100732.75
2023-04-10T18:26:32.326Z,100732.16
2023-04-10T18:29:01.350Z,100729.88
2023-04-10T18:31:29.793Z,100732.88
2023-04-10T18:34:06.982Z,100723.69
2023-04-10T18:36:35.911Z,100738.00
2023-04-10T18:39:03.917Z,100733.78
2023-04-10T18:41:31.957Z,100735.16
2023-04-10T18:44:05.021Z,100728.22
2023-04-10T18:46:33.149Z,100719.00
2023-04-10T18:49:03.533Z,100721.91
2023-04-10T18:51:35.802Z,100720.47
2023-04-10T18:54:03.759Z,100718.53
2023-04-10T18:56:31.118Z,100704.53
2023-04-10T18:58:58.942Z,100713.97
2023-04-10T19:01:27.104Z,100712.69
2023-04-10T19:03:55.656Z,100700.91
2023-04-10T19:06:24.681Z,100698.44
2023-04-10T19:08:55.462Z,100696.16
2023-04-10T19:11:23.590Z,100689.91
2023-04-10T19:13:51.573Z,100681.19
2023-04-10T19:16:19.850Z,100684.38
2023-04-10T19:18:48.209Z,100673.97
2023-04-10T19:21:15.809Z,100680.97
2023-04-10T19:23:43.078Z,100683.56
2023-04-10T19:26:10.120Z,100673.25
2023-04-10T19:28:36.584Z,100663.06
2023-04-10T19:31:09.486Z,100653.94
2023-04-10T19:33:36.620Z,100656.88
2023-04-10T19:36:08.306Z,100654.53
2023-04-10T19:38:38.808Z,100650.66
2023-04-10T19:41:16.450Z,100654.91
2023-04-10T19:43:46.824Z,100649.06
2023-04-10T19:46:17.675Z,100646.44
2023-04-10T19:48:47.951Z,100639.66
2023-04-10T19:51:18.676Z,100641.03
2023-04-10T19:53:50.118Z,100610.28
2023-04-10T19:56:16.893Z,100614.59
2023-04-10T19:58:46.826Z,100617.63
2023-04-10T20:01:17.162Z,100616.41
2023-04-10T20:03:44.488Z,100607.22
2023-04-10T20:06:13.222Z,100612.22
2023-04-10T20:08:40.608Z,100610.47
2023-04-10T20:11:09.624Z,100611.09
2023-04-10T20:13:38.582Z,100602.53
2023-04-10T20:16:06.885Z,100587.84
2023-04-10T20:18:33.980Z,100584.75
2023-04-10T20:21:03.145Z,100571.63
2023-04-10T20:23:30.165Z,100568.97
2023-04-10T20:26:00.035Z,100556.63
2023-04-10T20:28:31.907Z,100563.47
2023-04-10T20:31:02.866Z,100551.59
2023-04-10T20:33:33.819Z,100548.66
2023-04-10T20:36:00.617Z,100547.56
2023-04-10T20:38:28.684Z,100536.88
2023-04-10T20:40:55.752Z,100519.72
2023-04-10T20:43:24.785Z,100521.25
2023-04-10T20:45:51.501Z,100507.88
2023-04-10T20:48:18.231Z,100503.63
2023-04-10T20:50:49.635Z,100496.06
2023-04-10T20:53:16.227Z,100488.28
2023-04-10T20:55:43.449Z,100491.72
2023-04-10T20:58:10.823Z,100486.22
2023-04-10T21:00:39.691Z,100482.56
2023-04-10T21:03:08.263Z,100477.03
2023-04-10T21:05:38.633Z,100450.41
2023-04-10T21:08:05.658Z,100460.38
2023-04-10T21:10:32.357Z,100451.19
2023-04-10T21:13:01.694Z,100437.31
2023-04-10T21:15:29.893Z,100443.47
2023-04-10T21:17:56.823Z,100423.84
2023-04-10T21:20:23.861Z,100426.34
2023-04-10T21:22:52.536Z,100420.19
2023-04-10T21:25:19.318Z,100396.34
2023-04-10T21:27:50.464Z,100403.34
2023-04-10T21:30:17.821Z,100395.38
2023-04-10T21:32:44.674Z,100391.97
2023-04-10T21:35:13.233Z,100381.94
2023-04-10T21:37:39.859Z,100385.28
2023-04-10T21:40:10.971Z,100374.47
2023-04-10T21:42:38.842Z,100383.25
2023-04-10T21:45:06.333Z,100364.59
2023-04-10T21:47:34.060Z,100366.91
2023-04-10T21:50:20.532Z,100374.09
2023-04-10T21:52:47.923Z,100373.00
2023-04-10T21:55:15.731Z,100382.66
2023-04-10T21:57:42.935Z,100394.41
2023-04-10T22:00:15.604Z,100389.69
2023-04-10T22:02:42.448Z,100389.81
2023-04-10T22:05:11.382Z,100395.38
2023-04-10T22:07:38.812Z,100403.41
2023-04-10T22:10:07.406Z,100406.44
2023-04-10T22:12:34.245Z,100417.34
2023-04-10T22:15:00.831Z,100416.00
2023-04-10T22:17:27.281Z,100400.94
2023-04-10T22:19:55.167Z,100400.91
2023-04-10T22:22:21.844Z,100409.28
2023-04-10T22:24:48.885Z,100407.72
2023-04-10T22:27:15.644Z,100413.69
2023-04-10T22:29:47.502Z,100405.63
2023-04-10T22:32:16.926Z,100410.47
2023-04-10T22:34:43.669Z,100429.22
2023-04-10T22:37:11.680Z,100415.50
2023-04-10T22:39:38.549Z,100415.25
2023-04-10T22:42:06.903Z,100418.53
2023-04-10T22:44:33.467Z,100422.25
2023-04-10T22:47:00.328Z,100420.97
2023-04-10T22:49:27.153Z,100404.19
2023-04-10T22:51:54.139Z,100408.50
2023-04-10T22:54:20.796Z,100408.38
2023-04-10T22:56:48.908Z,100394.31
2023-04-10T22:59:16.482Z,100394.06
2023-04-10T23:01:43.301Z,100396.16
2023-04-10T23:04:09.747Z,100388.09
2023-04-10T23:06:36.401Z,100388.84
2023-04-10T23:09:03.335Z,100386.81
2023-04-10T23:11:29.736Z,100387.06
2023-04-10T23:13:56.431Z,100382.19
2023-04-10T23:16:23.372Z,100377.59
2023-04-10T23:18:50.132Z,100375.91
2023-04-10T23:21:16.725Z,100367.47
2023-04-10T23:23:43.338Z,100362.56
2023-04-10T23:26:11.452Z,100361.19
2023-04-10T23:28:38.674Z,100365.00
2023-04-10T23:31:05.959Z,100347.50
2023-04-10T23:33:32.909Z,100339.59
2023-04-10T23:35:59.782Z,100324.19
2023-04-10T23:38:26.835Z,100326.28
2023-04-10T23:40:54.411Z,100317.38
2023-04-10T23:43:21.267Z,100315.75
2023-04-10T23:45:48.018Z,100310.66
2023-04-10T23:48:14.702Z,100303.13
2023-04-10T23:50:44.011Z,100296.03
2023-04-10T23:53:11.806Z,100285.22
2023-04-10T23:55:39.721Z,100278.66
2023-04-10T23:58:06.285Z,100286.72
